CheckWX is a tool to help pilots better visualize weather data.  It is not intended as a substitute for an official pre-flight weather briefing.

04:01:56 UTC

EFSI METAR
Seinäjoki Airport
Seinäjoki / Ilmajoki, Finland
Current

12 mins ago

EFSI 250350Z AUTO 11003KT CAVOK 04/M01 Q1025
Observed
Apr-25 @ 03:50 UTC
Wind
  • 110° at 3 KTS
Visibility
10,000+ meters
Flight Rules
VFR
Cloud Levels
  • Clear skies
Temperature
C / 39°F
Dewpoint
-1°C / 30°F
Humidity
70%
Altimeter
30.27" Hg
Pressure
1024.92 hPa
Previous

42 mins ago

EFSI 250320Z AUTO 11003KT CAVOK 02/M01 Q1025
Observed
Apr-25 @ 03:20 UTC
Wind
  • 110° at 3 KTS
Visibility
10,000+ meters
Flight Rules
VFR
Cloud Levels
  • Clear skies
Temperature
C / 36°F
Dewpoint
-1°C / 30°F
Humidity
81%
Altimeter
30.27" Hg
Pressure
1024.92 hPa
Previous

1 hour ago

EFSI 250250Z AUTO 11002KT CAVOK 01/M01 Q1025
Observed
Apr-25 @ 02:50 UTC
Wind
  • 110° at 2 KTS
Visibility
10,000+ meters
Flight Rules
VFR
Cloud Levels
  • Clear skies
Temperature
C / 34°F
Dewpoint
-1°C / 30°F
Humidity
87%
Altimeter
30.27" Hg
Pressure
1024.92 hPa